Time;durP1;ratioP1;P1;durP2;ratioP2;P2;SDS_P1;SDS_P2;PMS_P1;PMS_P2;Temp;Humidity;BMP_temperature;BMP_pressure;BME280_temperature;BME280_humidity;BME280_pressure;Samples;Min_cycle;Max_cycle;Signal;HPM_P1;HPM_P2
2023/02/24 00:01:42;;;;;;;12.50;10.57;;;12.90;1.00;;;;;;5056558;28;20420;-45
2023/02/24 00:04:10;;;;;;;11.40;10.30;;;12.80;1.00;;;;;;5055438;28;20442;-44
2023/02/24 00:06:42;;;;;;;13.70;10.50;;;12.60;1.00;;;;;;5060939;28;20436;-43
2023/02/24 00:09:11;;;;;;;12.63;11.20;;;12.40;1.00;;;;;;5060590;28;20408;-42
2023/02/24 00:11:39;;;;;;;14.27;11.83;;;12.20;1.00;;;;;;5060441;28;20737;-43
2023/02/24 00:14:09;;;;;;;15.17;12.43;;;12.00;16.40;;;;;;5059481;28;20420;-43
2023/02/24 00:16:38;;;;;;;15.63;12.53;;;11.80;99.90;;;;;;5059108;28;20520;-43
2023/02/24 00:19:06;;;;;;;14.63;12.60;;;11.70;1.00;;;;;;5060223;28;20404;-45
2023/02/24 00:21:32;;;;;;;14.17;12.67;;;11.60;1.00;;;;;;5058834;28;20513;-44
2023/02/24 00:23:58;;;;;;;13.87;12.30;;;11.50;1.00;;;;;;5060510;28;20486;-44
2023/02/24 00:26:24;;;;;;;14.53;13.13;;;11.40;99.90;;;;;;5060844;28;20424;-43
2023/02/24 00:28:50;;;;;;;14.00;12.60;;;11.30;99.90;;;;;;5059465;28;20434;-44
2023/02/24 00:31:17;;;;;;;16.10;13.57;;;11.30;99.90;;;;;;5060706;28;20490;-44
2023/02/24 00:33:45;;;;;;;15.57;13.97;;;11.20;1.00;;;;;;5059862;28;20563;-44
2023/02/24 00:36:28;;;;;;;15.10;13.53;;;11.10;1.00;;;;;;5059385;28;20513;-46
2023/02/24 00:38:59;;;;;;;14.43;12.93;;;11.10;1.00;;;;;;5056502;28;20416;-44
2023/02/24 00:41:30;;;;;;;14.23;12.53;;;11.00;52.70;;;;;;5056160;28;20568;-44
2023/02/24 00:43:58;;;;;;;15.33;13.83;;;11.00;99.90;;;;;;5055668;28;20829;-45
2023/02/24 00:46:25;;;;;;;14.07;12.60;;;11.00;99.90;;;;;;5059338;28;20424;-43
2023/02/24 00:48:55;;;;;;;14.97;13.17;;;11.00;99.90;;;;;;5059270;28;20772;-43
2023/02/24 00:51:25;;;;;;;16.50;13.40;;;11.00;99.90;;;;;;5059774;28;20427;-43
2023/02/24 00:53:54;;;;;;;15.47;13.83;;;10.90;99.90;;;;;;5060509;28;20462;-45
2023/02/24 00:56:25;;;;;;;18.17;13.20;;;10.90;1.00;;;;;;5059091;28;20455;-44
2023/02/24 00:58:52;;;;;;;15.10;13.47;;;10.90;1.00;;;;;;5060401;28;20514;-43
2023/02/24 01:01:22;;;;;;;16.77;13.60;;;10.90;1.00;;;;;;5058698;28;20440;-44
2023/02/24 01:03:48;;;;;;;16.50;13.80;;;10.90;1.00;;;;;;5058173;28;20412;-45
2023/02/24 01:06:19;;;;;;;15.73;13.67;;;10.90;1.00;;;;;;5058273;28;20423;-48
2023/02/24 01:08:49;;;;;;;15.63;14.03;;;10.80;1.00;;;;;;5057415;28;20420;-43
2023/02/24 01:14:04;;;;;;;16.80;14.00;;;10.80;1.00;;;;;;5056488;28;20801;-43
2023/02/24 01:16:30;;;;;;;13.90;12.47;;;10.80;1.00;;;;;;5057732;28;20417;-44
2023/02/24 01:18:55;;;;;;;15.63;14.03;;;10.80;1.00;;;;;;5057672;28;20866;-43
2023/02/24 01:21:22;;;;;;;16.33;14.50;;;10.80;1.00;;;;;;5057363;28;20213;-43
2023/02/24 01:23:49;;;;;;;16.70;14.90;;;10.80;1.00;;;;;;5058656;28;20169;-46
2023/02/24 01:26:15;;;;;;;17.90;15.20;;;10.80;1.00;;;;;;5059229;28;20482;-46
2023/02/24 01:28:42;;;;;;;17.83;16.00;;;10.70;8.40;;;;;;5059612;28;20814;-43
2023/02/24 01:31:08;;;;;;;19.47;17.00;;;10.70;99.90;;;;;;5059761;28;20534;-43
2023/02/24 01:33:36;;;;;;;20.67;18.67;;;10.70;99.90;;;;;;5040785;28;20456;-46
2023/02/24 01:36:14;;;;;;;22.97;20.67;;;10.70;99.90;;;;;;5057769;28;20433;-43
2023/02/24 01:38:41;;;;;;;24.23;19.60;;;10.70;99.90;;;;;;5058127;28;20415;-43
2023/02/24 01:41:09;;;;;;;25.60;21.40;;;10.70;1.00;;;;;;5056871;28;20428;-44
2023/02/24 01:43:57;;;;;;;24.50;21.90;;;10.70;1.00;;;;;;5059196;28;20717;-44
2023/02/24 01:46:32;;;;;;;23.43;20.93;;;10.60;1.00;;;;;;5058217;28;20446;-44
2023/02/24 01:49:13;;;;;;;23.23;20.83;;;10.60;1.00;;;;;;5059227;28;20411;-44
2023/02/24 01:52:00;;;;;;;24.37;21.87;;;10.60;1.00;;;;;;5058131;28;20427;-43
2023/02/24 01:54:30;;;;;;;24.77;21.90;;;10.60;1.00;;;;;;5057778;28;20687;-43
2023/02/24 01:56:56;;;;;;;24.13;20.23;;;10.60;27.00;;;;;;5058057;28;20507;-42
2023/02/24 01:59:25;;;;;;;23.90;19.73;;;10.60;52.20;;;;;;5058342;28;20428;-43
2023/02/24 02:01:54;;;;;;;23.30;20.90;;;10.60;90.20;;;;;;5059822;28;20412;-43
2023/02/24 02:04:29;;;;;;;22.47;19.90;;;10.50;97.70;;;;;;5058323;28;20430;-46
2023/02/24 02:06:54;;;;;;;23.40;21.00;;;10.60;99.90;;;;;;5056526;28;20416;-43
2023/02/24 02:09:21;;;;;;;21.23;19.10;;;10.50;99.90;;;;;;5056839;28;20512;-44
2023/02/24 02:11:48;;;;;;;23.00;19.43;;;10.50;99.90;;;;;;5039070;28;20223;-42
2023/02/24 02:14:18;;;;;;;21.03;18.80;;;10.50;99.90;;;;;;5053680;28;20420;-44
2023/02/24 02:17:01;;;;;;;21.30;18.50;;;10.50;99.90;;;;;;5053796;28;20404;-44
2023/02/24 02:19:45;;;;;;;21.30;19.07;;;10.50;99.90;;;;;;5054718;28;20513;-44
2023/02/24 02:22:34;;;;;;;22.30;18.53;;;10.50;99.90;;;;;;5056066;28;20517;-44
2023/02/24 02:25:29;;;;;;;22.80;20.40;;;10.50;99.90;;;;;;5055746;28;20523;-42
2023/02/24 02:28:20;;;;;;;22.20;19.77;;;10.50;99.90;;;;;;5055188;28;20483;-42
2023/02/24 02:31:17;;;;;;;20.00;17.87;;;10.50;99.90;;;;;;5038296;28;20435;-43
2023/02/24 02:34:07;;;;;;;21.13;18.63;;;10.50;99.90;;;;;;5057778;28;20461;-42
2023/02/24 02:36:33;;;;;;;22.13;19.17;;;10.50;99.90;;;;;;5058234;28;20412;-45
2023/02/24 02:39:02;;;;;;;20.40;18.30;;;10.50;99.90;;;;;;5057628;28;20628;-44
2023/02/24 02:41:35;;;;;;;22.60;20.13;;;10.50;99.90;;;;;;5056883;28;20191;-43
2023/02/24 02:44:15;;;;;;;22.50;19.33;;;10.50;99.90;;;;;;5056254;28;20443;-44
2023/02/24 02:46:45;;;;;;;21.80;19.37;;;10.50;99.90;;;;;;5057891;28;20675;-45
2023/02/24 02:49:25;;;;;;;24.77;22.03;;;10.40;99.90;;;;;;5056203;28;20409;-43
2023/02/24 02:51:55;;;;;;;22.30;20.00;;;10.50;99.90;;;;;;5057666;28;20448;-44
2023/02/24 02:54:26;;;;;;;21.00;17.80;;;10.50;99.90;;;;;;5056425;28;20443;-45
2023/02/24 02:57:19;;;;;;;23.87;21.37;;;10.50;99.90;;;;;;5056462;28;20415;-45
2023/02/24 03:00:13;;;;;;;23.07;19.10;;;10.50;99.90;;;;;;5054992;28;20439;-43
2023/02/24 03:02:43;;;;;;;23.60;19.60;;;10.50;99.90;;;;;;5039397;28;20432;-43
2023/02/24 03:05:09;;;;;;;24.27;21.33;;;10.50;99.90;;;;;;5056384;28;20513;-46
2023/02/24 03:07:41;;;;;;;23.07;20.60;;;10.50;95.30;;;;;;5057233;28;20700;-44
2023/02/24 03:10:19;;;;;;;25.37;20.57;;;10.50;90.80;;;;;;5057232;28;20432;-44
2023/02/24 03:12:49;;;;;;;21.00;18.80;;;10.50;47.60;;;;;;5057129;28;20455;-43
2023/02/24 03:15:15;;;;;;;20.83;18.50;;;10.50;9.90;;;;;;5056484;28;20597;-43
2023/02/24 03:17:44;;;;;;;21.20;18.53;;;10.50;1.00;;;;;;5057635;28;20442;-42
2023/02/24 03:20:41;;;;;;;21.67;19.33;;;10.50;1.00;;;;;;5057161;28;20531;-43
2023/02/24 03:23:15;;;;;;;22.63;20.20;;;10.50;1.00;;;;;;5055132;28;20420;-42
2023/02/24 03:25:53;;;;;;;48.43;31.67;;;10.50;1.00;;;;;;5057045;28;20818;-44
2023/02/24 03:28:34;;;;;;;108.07;59.40;;;10.50;1.00;;;;;;5057834;28;20590;-44
2023/02/24 03:31:07;;;;;;;116.10;61.73;;;10.50;1.00;;;;;;5056444;28;20455;-43
2023/02/24 03:33:59;;;;;;;98.60;58.20;;;10.50;1.00;;;;;;5057630;28;20837;-43
2023/02/24 03:36:26;;;;;;;80.43;48.80;;;10.50;1.00;;;;;;5048644;28;20444;-43
2023/02/24 03:38:52;;;;;;;67.10;42.93;;;10.40;1.00;;;;;;5058025;28;20444;-43
2023/02/24 03:41:18;;;;;;;64.67;41.37;;;10.50;1.00;;;;;;5059709;28;20474;-45
2023/02/24 03:43:46;;;;;;;55.83;36.60;;;10.40;1.00;;;;;;5060070;28;20419;-44
2023/02/24 03:46:14;;;;;;;47.13;33.10;;;10.50;1.00;;;;;;5060815;28;20182;-44
2023/02/24 03:48:44;;;;;;;50.20;32.80;;;10.50;1.00;;;;;;5061112;28;20427;-45
2023/02/24 03:51:15;;;;;;;41.67;27.87;;;10.50;1.00;;;;;;5060169;28;20460;-43
2023/02/24 03:54:00;;;;;;;33.00;25.33;;;10.50;1.00;;;;;;5061092;28;20463;-42
2023/02/24 03:56:42;;;;;;;30.80;25.27;;;10.50;1.00;;;;;;5059908;28;20862;-45
2023/02/24 03:59:27;;;;;;;31.63;23.97;;;10.50;1.00;;;;;;5059548;28;20408;-40
2023/02/24 04:02:00;;;;;;;29.13;22.80;;;10.50;1.00;;;;;;5059090;28;20803;-42
2023/02/24 04:04:33;;;;;;;26.33;22.17;;;10.50;1.00;;;;;;5058975;28;20424;-44
2023/02/24 04:07:27;;;;;;;26.47;23.77;;;10.50;1.00;;;;;;5057796;28;20416;-41
2023/02/24 04:09:56;;;;;;;23.70;19.63;;;10.50;1.00;;;;;;5058587;28;20463;-45
2023/02/24 04:12:38;;;;;;;27.30;20.47;;;10.50;1.00;;;;;;5059292;28;20462;-43
2023/02/24 04:15:25;;;;;;;25.50;21.23;;;10.50;1.00;;;;;;5058229;28;20441;-43
2023/02/24 04:17:54;;;;;;;25.93;21.53;;;10.50;1.00;;;;;;5057774;28;20506;-43
2023/02/24 04:20:21;;;;;;;23.73;19.83;;;10.50;1.00;;;;;;5058350;28;20456;-45
2023/02/24 04:22:50;;;;;;;24.00;19.77;;;10.50;1.00;;;;;;5058505;28;20432;-44
2023/02/24 04:25:23;;;;;;;26.33;21.60;;;10.50;1.00;;;;;;5059096;28;20777;-43
2023/02/24 04:27:51;;;;;;;27.77;22.77;;;10.50;1.00;;;;;;5058662;28;20526;-46
2023/02/24 04:30:18;;;;;;;24.03;21.33;;;10.50;1.00;;;;;;5058293;28;20497;-43
2023/02/24 04:32:44;;;;;;;28.10;24.63;;;10.50;1.00;;;;;;5057544;28;20487;-44
2023/02/24 04:35:15;;;;;;;31.40;24.70;;;10.40;1.00;;;;;;5058395;28;20432;-43
2023/02/24 04:37:44;;;;;;;29.20;24.60;;;10.40;1.00;;;;;;5057631;28;20174;-46
2023/02/24 04:40:16;;;;;;;32.00;25.40;;;10.40;1.00;;;;;;5057297;28;20424;-43
2023/02/24 04:42:45;;;;;;;31.20;23.60;;;10.40;1.00;;;;;;5055970;28;20712;-44
2023/02/24 04:45:23;;;;;;;36.90;27.13;;;10.40;1.00;;;;;;5057462;28;20750;-44
2023/02/24 04:47:51;;;;;;;33.47;26.17;;;10.40;1.00;;;;;;5057330;28;20401;-42
2023/02/24 04:50:22;;;;;;;37.00;29.27;;;10.40;27.40;;;;;;5057914;28;20457;-46
2023/02/24 04:52:56;;;;;;;35.37;27.10;;;10.30;99.90;;;;;;5056054;28;20656;-43
2023/02/24 04:55:27;;;;;;;35.73;27.30;;;10.30;99.90;;;;;;5056681;28;20460;-43
2023/02/24 04:57:54;;;;;;;36.33;28.77;;;10.20;99.90;;;;;;5056046;28;20404;-43
2023/02/24 05:00:21;;;;;;;37.43;29.10;;;10.20;99.90;;;;;;5057868;28;20443;-44
2023/02/24 05:02:51;;;;;;;33.20;28.20;;;10.20;99.90;;;;;;5056408;28;20408;-46
2023/02/24 05:05:24;;;;;;;36.43;28.63;;;10.10;99.90;;;;;;5055857;28;20505;-45
2023/02/24 05:07:51;;;;;;;34.93;26.90;;;10.10;99.90;;;;;;5057220;28;20420;-45
2023/02/24 05:10:17;;;;;;;35.50;27.70;;;10.10;99.90;;;;;;5058210;28;20440;-45
2023/02/24 05:12:43;;;;;;;36.10;27.40;;;10.10;1.00;;;;;;5058503;28;20889;-45
2023/02/24 05:15:11;;;;;;;31.47;26.60;;;10.00;1.00;;;;;;5058806;28;20459;-44
2023/02/24 05:17:37;;;;;;;33.40;27.57;;;10.00;1.00;;;;;;5057697;28;20780;-45
2023/02/24 05:22:51;;;;;;;33.90;28.63;;;10.00;1.00;;;;;;5057868;28;20419;-43
2023/02/24 05:25:18;;;;;;;32.20;26.83;;;10.00;1.00;;;;;;5056927;28;20435;-43
2023/02/24 05:27:44;;;;;;;30.03;26.13;;;10.00;1.00;;;;;;5057574;28;20479;-44
2023/02/24 05:30:11;;;;;;;33.50;26.67;;;10.00;1.00;;;;;;5052671;28;20439;-44
2023/02/24 05:32:37;;;;;;;34.60;28.10;;;10.00;1.00;;;;;;5054133;28;20557;-43
2023/02/24 05:35:03;;;;;;;33.87;26.73;;;10.00;1.00;;;;;;5053774;28;20435;-43
2023/02/24 05:37:29;;;;;;;34.23;27.10;;;10.00;1.00;;;;;;5053429;28;20412;-45
2023/02/24 05:39:55;;;;;;;31.80;26.40;;;10.00;1.00;;;;;;5051392;28;20753;-44
2023/02/24 05:42:21;;;;;;;31.93;26.37;;;10.00;1.00;;;;;;5053232;28;20174;-43
2023/02/24 05:44:46;;;;;;;32.47;26.00;;;10.00;1.00;;;;;;5054170;28;20430;-44
2023/02/24 05:47:12;;;;;;;32.63;26.70;;;9.90;1.00;;;;;;5052728;28;20173;-44
2023/02/24 05:49:38;;;;;;;30.10;25.33;;;9.90;1.00;;;;;;5054148;28;20206;-43
2023/02/24 05:52:07;;;;;;;31.00;25.13;;;9.90;1.00;;;;;;5054872;28;20912;-44
2023/02/24 05:54:52;;;;;;;29.73;24.47;;;9.90;1.00;;;;;;5053811;28;20424;-44
2023/02/24 05:57:24;;;;;;;33.57;24.90;;;9.90;1.00;;;;;;5055109;28;20397;-44
2023/02/24 05:59:50;;;;;;;34.10;25.47;;;10.00;1.00;;;;;;5053830;28;20857;-44
2023/02/24 06:02:25;;;;;;;32.07;26.03;;;10.00;1.00;;;;;;5052399;28;20413;-44
2023/02/24 06:04:55;;;;;;;31.03;25.60;;;10.00;1.00;;;;;;5054031;28;20466;-43
2023/02/24 06:07:33;;;;;;;34.50;28.43;;;10.00;1.00;;;;;;5053542;28;20420;-45
2023/02/24 06:09:59;;;;;;;33.57;25.50;;;10.00;1.00;;;;;;5054100;28;20979;-44
2023/02/24 06:12:27;;;;;;;29.50;24.53;;;10.00;1.00;;;;;;5052789;28;20498;-44
2023/02/24 06:14:52;;;;;;;30.90;23.83;;;9.90;1.00;;;;;;5054907;28;20436;-45
2023/02/24 06:17:20;;;;;;;29.63;23.17;;;9.90;1.00;;;;;;5052216;28;20486;-43
2023/02/24 06:19:48;;;;;;;31.43;24.90;;;9.90;1.00;;;;;;5052689;28;20436;-43
2023/02/24 06:22:16;;;;;;;31.33;23.83;;;9.90;1.00;;;;;;5055070;28;20427;-42
2023/02/24 06:24:44;;;;;;;31.30;25.30;;;9.90;1.00;;;;;;5053887;28;20432;-45
2023/02/24 06:27:17;;;;;;;33.77;26.37;;;9.90;1.00;;;;;;5054652;28;20515;-49
2023/02/24 06:29:48;;;;;;;32.70;25.07;;;9.90;1.00;;;;;;5055516;28;20424;-43
2023/02/24 06:32:15;;;;;;;30.73;24.27;;;9.90;1.00;;;;;;5053805;28;20459;-44
2023/02/24 06:34:40;;;;;;;30.60;24.20;;;9.90;1.00;;;;;;5054534;28;20435;-43
2023/02/24 06:37:07;;;;;;;27.03;22.37;;;9.90;1.00;;;;;;5051106;28;20500;-43
2023/02/24 06:39:36;;;;;;;31.67;24.77;;;10.00;1.00;;;;;;5050405;28;20209;-44
2023/02/24 06:42:03;;;;;;;31.43;23.77;;;10.00;1.00;;;;;;5051327;28;20458;-43
2023/02/24 06:44:34;;;;;;;32.80;25.43;;;10.00;1.00;;;;;;5051068;28;20506;-43
2023/02/24 06:47:02;;;;;;;31.73;24.00;;;10.00;99.90;;;;;;5052531;28;20467;-44
2023/02/24 06:49:28;;;;;;;27.60;22.40;;;10.00;99.90;;;;;;5051088;28;20538;-45
2023/02/24 06:51:54;;;;;;;30.60;23.40;;;10.00;99.90;;;;;;5052409;28;20463;-43
2023/02/24 06:54:21;;;;;;;34.50;26.17;;;10.10;99.90;;;;;;5052916;28;20711;-45
2023/02/24 06:56:47;;;;;;;32.33;24.73;;;10.10;99.90;;;;;;5054287;28;20408;-44
2023/02/24 06:59:20;;;;;;;32.50;25.10;;;10.10;99.90;;;;;;5054680;28;20908;-44
2023/02/24 07:01:49;;;;;;;32.13;24.80;;;10.10;99.90;;;;;;5052420;28;20431;-44
2023/02/24 07:04:16;;;;;;;31.50;25.53;;;10.20;99.90;;;;;;5053366;28;20439;-43
2023/02/24 07:06:44;;;;;;;29.67;24.60;;;10.20;99.90;;;;;;5052500;28;20645;-43
2023/02/24 07:09:12;;;;;;;32.67;24.97;;;10.20;99.90;;;;;;5050760;28;20447;-44
2023/02/24 07:11:40;;;;;;;33.37;26.03;;;10.20;99.90;;;;;;5050331;28;20864;-43
2023/02/24 07:14:06;;;;;;;31.20;23.90;;;10.20;99.90;;;;;;5050109;28;20602;-43
2023/02/24 07:16:34;;;;;;;31.23;24.70;;;10.20;99.90;;;;;;5051507;28;20468;-44
2023/02/24 07:19:01;;;;;;;30.83;23.57;;;10.30;99.90;;;;;;5051727;28;20404;-44
2023/02/24 07:21:42;;;;;;;33.00;25.07;;;10.30;99.90;;;;;;5054378;28;20470;-43
2023/02/24 07:24:13;;;;;;;33.60;24.60;;;10.40;99.90;;;;;;5052941;28;20408;-43
2023/02/24 07:26:40;;;;;;;29.00;25.10;;;10.40;99.90;;;;;;5052034;28;20466;-45
2023/02/24 07:29:07;;;;;;;32.07;25.10;;;10.40;99.90;;;;;;5050895;28;20409;-43
2023/02/24 07:31:34;;;;;;;31.20;25.17;;;10.40;99.90;;;;;;5052970;28;20543;-46
2023/02/24 07:34:00;;;;;;;34.60;25.97;;;10.50;99.90;;;;;;5052466;28;20893;-43
2023/02/24 07:36:28;;;;;;;36.90;27.00;;;10.50;99.90;;;;;;5052903;28;20439;-43
2023/02/24 07:39:00;;;;;;;34.63;26.83;;;10.50;99.90;;;;;;5052022;28;20480;-43
2023/02/24 07:41:26;;;;;;;33.10;25.77;;;10.60;99.90;;;;;;5053587;28;20425;-43
2023/02/24 07:43:53;;;;;;;32.73;25.97;;;10.60;99.90;;;;;;5052805;28;20737;-43
2023/02/24 07:46:24;;;;;;;30.40;24.90;;;10.60;99.90;;;;;;5053360;28;20436;-44
2023/02/24 07:48:51;;;;;;;33.67;25.70;;;10.60;99.90;;;;;;5051518;28;20435;-43
2023/02/24 07:51:19;;;;;;;33.00;26.43;;;10.60;99.90;;;;;;5052367;28;20523;-44
2023/02/24 07:53:52;;;;;;;29.47;25.03;;;10.60;99.90;;;;;;5051535;28;20479;-43
2023/02/24 07:56:19;;;;;;;31.83;26.63;;;10.60;99.90;;;;;;5054032;28;20680;-44
2023/02/24 07:58:49;;;;;;;38.00;27.23;;;10.60;99.90;;;;;;5053870;28;20427;-44
2023/02/24 08:01:21;;;;;;;39.43;29.10;;;10.60;99.90;;;;;;5054264;28;20440;-45
2023/02/24 08:03:51;;;;;;;35.73;27.50;;;10.60;99.90;;;;;;5055580;28;20472;-43
2023/02/24 08:06:25;;;;;;;36.10;27.40;;;10.70;99.90;;;;;;5055426;28;20538;-43
2023/02/24 08:09:15;;;;;;;32.13;25.90;;;10.70;99.90;;;;;;5055171;28;20419;-43
2023/02/24 08:11:44;;;;;;;32.50;25.07;;;10.70;99.90;;;;;;5053536;28;20675;-44
2023/02/24 08:14:13;;;;;;;28.97;24.37;;;10.60;99.90;;;;;;5055009;28;20439;-43
2023/02/24 08:16:40;;;;;;;31.30;25.00;;;10.60;99.90;;;;;;5055297;28;20416;-45
2023/02/24 08:19:09;;;;;;;35.53;24.57;;;10.60;99.90;;;;;;5051864;28;20419;-44
2023/02/24 08:21:40;;;;;;;27.13;23.00;;;10.60;99.90;;;;;;5035254;28;20460;-46
2023/02/24 08:24:16;;;;;;;30.40;22.83;;;10.70;99.90;;;;;;5035053;28;20420;-45
2023/02/24 08:27:05;;;;;;;27.80;22.40;;;10.80;99.90;;;;;;5036090;28;20464;-44
2023/02/24 08:29:30;;;;;;;27.37;22.37;;;10.80;44.00;;;;;;5038807;28;20412;-44
2023/02/24 08:31:57;;;;;;;27.30;21.60;;;10.90;21.00;;;;;;5037444;28;20476;-45
2023/02/24 08:34:30;;;;;;;31.30;23.97;;;11.00;1.00;;;;;;5036438;28;20290;-43
2023/02/24 08:36:56;;;;;;;31.50;24.37;;;11.00;1.00;;;;;;5036734;28;20695;-44
2023/02/24 08:39:22;;;;;;;28.10;22.23;;;11.10;1.00;;;;;;5035821;28;20544;-43
2023/02/24 08:41:50;;;;;;;24.40;20.50;;;11.10;1.00;;;;;;5036158;28;20485;-44
2023/02/24 08:44:20;;;;;;;24.90;20.93;;;11.20;1.00;;;;;;5037860;28;20847;-43
2023/02/24 08:46:49;;;;;;;24.57;20.10;;;11.20;1.00;;;;;;5036144;28;20802;-43
2023/02/24 08:49:16;;;;;;;25.60;20.43;;;11.20;1.00;;;;;;5035536;28;20432;-43
2023/02/24 08:51:44;;;;;;;23.17;18.60;;;11.30;99.90;;;;;;5036534;28;20469;-43
2023/02/24 08:54:25;;;;;;;22.27;18.67;;;11.30;99.90;;;;;;5037719;28;20410;-43
2023/02/24 08:56:55;;;;;;;21.50;17.30;;;11.40;99.90;;;;;;5037162;28;20413;-44
2023/02/24 08:59:36;;;;;;;20.77;17.90;;;11.50;99.90;;;;;;5055176;28;20448;-44
2023/02/24 09:02:18;;;;;;;21.60;18.70;;;11.60;37.60;;;;;;5054867;28;20432;-43
2023/02/24 09:04:44;;;;;;;20.87;17.23;;;11.60;1.00;;;;;;5056170;28;20424;-43
2023/02/24 09:07:15;;;;;;;22.57;17.77;;;11.70;1.00;;;;;;5056243;28;20446;-46
2023/02/24 09:09:42;;;;;;;23.13;18.20;;;11.80;1.00;;;;;;5054913;28;20448;-44
2023/02/24 09:12:20;;;;;;;22.30;17.17;;;12.00;99.90;;;;;;5055092;28;20454;-43
2023/02/24 09:14:48;;;;;;;21.13;16.90;;;12.10;53.10;;;;;;5055340;28;20428;-45
2023/02/24 09:17:19;;;;;;;23.67;17.30;;;12.30;99.90;;;;;;5057094;28;20805;-46
2023/02/24 09:22:39;;;;;;;18.30;15.23;;;12.50;1.00;;;;;;5052424;28;20451;-43
2023/02/24 09:25:17;;;;;;;19.07;15.63;;;12.50;1.00;;;;;;5033860;28;20436;-46
2023/02/24 09:27:46;;;;;;;20.43;15.20;;;12.60;99.90;;;;;;5050642;28;20989;-44
2023/02/24 09:33:00;;;;;;;19.10;15.50;;;12.70;1.00;;;;;;5056185;28;20617;-43
2023/02/24 09:35:30;;;;;;;18.97;15.20;;;12.70;1.00;;;;;;5055030;28;20534;-44
2023/02/24 09:37:59;;;;;;;18.00;14.50;;;12.70;99.90;;;;;;5038007;28;20431;-45
2023/02/24 09:43:26;;;;;;;17.27;13.93;;;12.80;99.90;;;;;;5039202;28;20523;-44
2023/02/24 09:45:59;;;;;;;17.87;13.17;;;12.90;99.90;;;;;;5052889;28;20468;-44
2023/02/24 09:48:42;;;;;;;18.70;13.50;;;13.00;1.00;;;;;;5052919;28;20428;-43
2023/02/24 09:51:13;;;;;;;19.10;13.67;;;13.20;1.00;;;;;;5054364;28;20428;-44
2023/02/24 09:53:40;;;;;;;23.13;13.70;;;13.40;99.90;;;;;;5054791;28;20483;-44
2023/02/24 09:56:27;;;;;;;16.43;11.80;;;13.60;26.10;;;;;;5054938;28;20854;-46
2023/02/24 09:59:24;;;;;;;18.97;11.50;;;13.70;1.00;;;;;;5055545;28;20725;-44
2023/02/24 10:02:08;;;;;;;8.93;5.20;;;14.00;99.90;;;;;;5003651;28;20452;-45
2023/02/24 10:04:53;;;;;;;6.47;4.70;;;14.30;99.90;;;;;;5053729;28;20431;-44
2023/02/24 10:07:28;;;;;;;6.40;4.90;;;14.90;99.90;;;;;;5053821;28;20416;-47
2023/02/24 10:10:26;;;;;;;7.27;6.33;;;15.30;1.00;;;;;;5051690;28;20427;-46
2023/02/24 10:13:13;;;;;;;5.90;4.80;;;15.70;99.90;;;;;;5052070;28;20463;-46
2023/02/24 10:18:29;;;;;;;10.07;6.00;;;16.50;1.00;;;;;;5054790;28;20457;-45
2023/02/24 10:21:14;;;;;;;8.50;5.73;;;16.80;99.90;;;;;;5053584;28;20425;-43
2023/02/24 10:24:00;;;;;;;7.47;5.60;;;17.10;99.90;;;;;;5036320;28;20492;-43
2023/02/24 10:26:43;;;;;;;9.40;5.97;;;17.40;99.90;;;;;;5054455;28;20420;-44
2023/02/24 10:29:28;;;;;;;5.80;4.77;;;17.70;47.00;;;;;;5054865;28;20783;-45
2023/02/24 10:32:06;;;;;;;7.63;5.53;;;18.00;11.40;;;;;;5052993;28;20416;-45
2023/02/24 10:34:32;;;;;;;6.00;5.20;;;18.20;1.00;;;;;;5052988;28;20547;-45
2023/02/24 10:37:11;;;;;;;9.90;6.03;;;18.40;1.00;;;;;;5054825;28;20408;-45
2023/02/24 10:39:42;;;;;;;9.70;6.50;;;18.50;1.00;;;;;;5054314;28;20459;-46
2023/02/24 10:42:14;;;;;;;7.67;5.50;;;18.60;1.00;;;;;;5052098;28;20424;-47
2023/02/24 10:44:50;;;;;;;7.40;5.47;;;18.60;1.00;;;;;;5052517;28;20519;-48
2023/02/24 10:47:43;;;;;;;10.73;5.30;;;18.50;1.00;;;;;;5053519;28;20422;-46
2023/02/24 10:50:22;;;;;;;12.13;7.53;;;18.40;1.00;;;;;;5052364;28;20723;-41
2023/02/24 10:58:43;;;;;;;8.03;6.67;;;17.50;1.00;;;;;;5054274;28;20440;-42
2023/02/24 11:07:23;;;;;;;10.07;6.87;;;16.30;1.00;;;;;;5034140;28;20702;-44
2023/02/24 11:10:11;;;;;;;9.10;6.63;;;15.90;1.00;;;;;;5029519;28;20639;-43
2023/02/24 11:18:22;;;;;;;13.33;9.83;;;14.80;1.00;;;;;;5032386;28;20567;-42
2023/02/24 11:20:54;;;;;;;14.53;10.70;;;14.50;1.00;;;;;;5032250;28;20429;-43
2023/02/24 11:23:44;;;;;;;15.03;11.30;;;14.30;1.00;;;;;;5031618;28;20431;-46
2023/02/24 11:26:43;;;;;;;18.03;12.47;;;14.10;38.70;;;;;;5020791;28;20820;-41
2023/02/24 11:29:32;;;;;;;14.80;11.77;;;13.90;99.90;;;;;;4979198;28;20781;-43
2023/02/24 11:32:16;;;;;;;17.90;13.10;;;13.70;99.90;;;;;;5033943;28;20912;-43
2023/02/24 11:34:42;;;;;;;17.87;13.17;;;13.60;99.90;;;;;;5033948;28;20779;-42
2023/02/24 11:37:26;;;;;;;19.03;13.20;;;13.50;99.90;;;;;;5032477;28;20547;-43
2023/02/24 11:39:58;;;;;;;20.77;13.30;;;13.40;1.00;;;;;;5032076;28;20190;-42
2023/02/24 11:42:30;;;;;;;20.17;14.43;;;13.40;1.00;;;;;;5032010;28;20417;-43
2023/02/24 11:45:41;;;;;;;15.50;13.13;;;13.40;1.00;;;;;;5030266;28;20631;-45
2023/02/24 11:48:14;;;;;;;17.20;13.37;;;13.40;1.00;;;;;;5011814;28;20841;-44
2023/02/24 11:50:52;;;;;;;18.03;12.70;;;13.50;1.00;;;;;;5030862;28;20425;-43
2023/02/24 11:53:18;;;;;;;19.20;12.73;;;13.60;1.00;;;;;;5031520;28;20752;-43
2023/02/24 11:55:48;;;;;;;19.23;13.47;;;13.70;1.00;;;;;;5038996;28;20544;-44
2023/02/24 11:58:23;;;;;;;18.37;12.87;;;14.00;1.00;;;;;;5049052;28;20206;-43
2023/02/24 12:01:14;;;;;;;18.30;12.67;;;14.30;1.00;;;;;;5050627;28;20530;-45
2023/02/24 12:04:04;;;;;;;17.80;11.70;;;14.80;99.90;;;;;;5048115;28;20447;-46
2023/02/24 12:06:41;;;;;;;14.73;10.63;;;15.30;99.90;;;;;;5036484;28;20425;-43
2023/02/24 12:09:13;;;;;;;15.00;10.63;;;15.90;99.90;;;;;;5037703;28;20531;-45
2023/02/24 12:11:51;;;;;;;15.20;10.83;;;17.00;57.80;;;;;;5034502;28;20417;-44
2023/02/24 12:14:22;;;;;;;16.53;10.77;;;18.90;1.00;;;;;;5035600;28;20433;-45
2023/02/24 12:17:02;;;;;;;12.80;10.60;;;20.60;1.00;;;;;;5035917;28;20493;-44
2023/02/24 12:19:44;;;;;;;13.73;10.53;;;21.40;1.00;;;;;;5034125;28;20417;-46
2023/02/24 12:22:15;;;;;;;11.27;9.33;;;21.60;1.00;;;;;;5040713;28;20472;-44
2023/02/24 12:24:50;;;;;;;12.20;9.13;;;21.70;1.00;;;;;;5036430;28;21010;-45
2023/02/24 12:27:40;;;;;;;10.07;7.60;;;22.10;1.00;;;;;;5050153;28;20506;-47
2023/02/24 12:30:35;;;;;;;13.27;7.70;;;23.00;1.00;;;;;;5042721;28;21099;-42
2023/02/24 12:33:09;;;;;;;10.90;8.73;;;24.50;1.00;;;;;;5034480;28;20468;-43
2023/02/24 12:35:57;;;;;;;9.70;8.37;;;24.90;1.00;;;;;;5034932;28;20823;-43
2023/02/24 12:38:44;;;;;;;12.73;8.37;;;24.60;1.00;;;;;;5031719;28;20523;-44
2023/02/24 12:41:34;;;;;;;12.20;8.83;;;24.00;1.00;;;;;;5031784;28;20416;-43
2023/02/24 12:44:13;;;;;;;9.80;8.80;;;23.40;1.00;;;;;;5034143;28;20467;-44
2023/02/24 12:46:40;;;;;;;11.83;8.70;;;22.70;1.00;;;;;;5035475;28;20482;-44
2023/02/24 12:49:43;;;;;;;9.47;8.40;;;22.00;1.00;;;;;;5036821;28;20500;-45
2023/02/24 12:52:18;;;;;;;8.90;8.00;;;21.40;1.00;;;;;;5034200;28;20512;-43
2023/02/24 12:55:07;;;;;;;13.33;8.03;;;20.70;1.00;;;;;;5019587;28;20436;-43
2023/02/24 12:57:57;;;;;;;12.17;6.63;;;20.10;1.00;;;;;;5036510;28;20413;-43
2023/02/24 13:00:26;;;;;;;11.23;7.60;;;19.60;1.00;;;;;;5031970;28;20513;-43
2023/02/24 13:03:14;;;;;;;10.60;6.70;;;19.20;1.00;;;;;;5035075;28;20409;-44
2023/02/24 13:05:51;;;;;;;15.67;7.70;;;18.90;1.00;;;;;;5032380;28;20432;-43
2023/02/24 13:08:53;;;;;;;11.00;6.97;;;18.70;1.00;;;;;;5034008;28;20524;-43
2023/02/24 13:11:37;;;;;;;10.23;7.43;;;18.70;1.00;;;;;;5027374;28;20443;-44
2023/02/24 13:14:10;;;;;;;12.00;7.80;;;18.60;1.00;;;;;;5033387;28;20867;-44
2023/02/24 13:16:36;;;;;;;8.90;6.93;;;18.50;1.00;;;;;;5030280;28;20433;-44
2023/02/24 13:19:24;;;;;;;8.13;6.07;;;18.40;1.00;;;;;;5031617;28;20850;-46
2023/02/24 13:22:35;;;;;;;10.53;6.43;;;18.30;1.00;;;;;;5033910;28;20839;-47
2023/02/24 13:25:07;;;;;;;8.87;5.93;;;18.30;1.00;;;;;;5032444;28;20420;-45
2023/02/24 13:27:35;;;;;;;8.13;4.80;;;18.30;1.00;;;;;;5035598;28;20833;-44
2023/02/24 13:30:38;;;;;;;7.83;6.43;;;18.30;1.00;;;;;;5034233;28;20821;-46
2023/02/24 13:33:03;;;;;;;10.50;6.33;;;18.20;1.00;;;;;;5006258;28;20633;-44
2023/02/24 13:35:35;;;;;;;6.70;5.23;;;18.10;1.00;;;;;;5034105;28;20429;-43
2023/02/24 13:38:29;;;;;;;11.33;6.20;;;17.90;1.00;;;;;;5030117;28;20381;-44
2023/02/24 13:41:18;;;;;;;8.63;6.23;;;17.80;1.00;;;;;;5028947;28;20439;-45
2023/02/24 13:43:59;;;;;;;9.90;5.63;;;17.60;1.00;;;;;;5011601;28;20495;-44